Tarifa Jet — C4NX2 — position and weather

sailwx.info

Track history (hours):
 
Tides and Currents Weather Stations Pressure Air Temp Water Temp Dewpoint Dewpoint Depression Visibility Wind Speed Wind Dir Waves Ship Positions

Tarifa Jet

Last reported at 2018-Jan-22 22:45 UTC. Time now 2018-Jan-23 06:26 UTC.
Position N 36°01' W 005°36'.

Length 86 m; draft 3.6 m.

Type: High speed craft. MMSI: 209375000.

Date/timePositionNaut miles runAvg speedWind from/ knotsBaromVisibWave heightAir tempDewpointWater temp
2018-Jan-22 22:45N 36°01' W 005°36'10 5.2
2018-Jan-22 20:44N 35°53' W 005°46'724.4
2018-Jan-22 20:25N 35°58' W 005°39'3 7.5
2018-Jan-22 20:01N 36°01' W 005°36'0 0.1
2018-Jan-22 19:30N 36°01' W 005°36'2 0.7
2018-Jan-22 16:23N 35°59' W 005°38'2 1.8
2018-Jan-22 15:12N 36°01' W 005°36'3 1.2
2018-Jan-22 12:26N 35°59' W 005°40'3 3.5
2018-Jan-22 11:28N 36°01' W 005°36'1 0.2
2018-Jan-22 08:13N 36°00' W 005°36'1 0.1
2018-Jan-21 22:46N 36°01' W 005°36'11 5.1
2018-Jan-21 20:39N 35°53' W 005°46'724.3
2018-Jan-21 20:21N 35°58' W 005°40'410.7
2018-Jan-21 20:00N 36°01' W 005°36'0 0.0
2018-Jan-21 19:30N 36°01' W 005°36'3 1.0
2018-Jan-21 16:36N 35°59' W 005°39'218.2
2018-Jan-21 16:30N 35°59' W 005°37'1 1.8
2018-Jan-21 15:48N 36°01' W 005°36'0 0.0
2018-Jan-21 15:31N 36°01' W 005°36'0 0.0
2018-Jan-20 22:41N 36°01' W 005°36'212.1
2018-Jan-20 22:31N 35°59' W 005°38'1 0.4
2018-Jan-20 19:14N 35°60' W 005°36'12 1.8
2018-Jan-20 12:47N 35°51' W 005°47'925.7
2018-Jan-20 12:26N 35°58' W 005°40'3 2.5
2018-Jan-20 11:24N 35°59' W 005°37'1 0.1
2018-Jan-19 22:49N 36°01' W 005°36'822.3
2018-Jan-19 22:28N 35°55' W 005°42'9 6.0
2018-Jan-19 21:02N 35°47' W 005°48'1 3.8
2018-Jan-19 20:52N 35°48' W 005°47'1025.9
2018-Jan-19 20:29N 35°57' W 005°44'714.3
2018-Jan-19 20:00N 36°01' W 005°36'0 0.0
2018-Jan-19 19:15N 36°01' W 005°36'2 9.5
2018-Jan-19 19:01N 35°59' W 005°38'1121.7
2018-Jan-19 18:29N 35°50' W 005°46'3 3.8
2018-Jan-19 17:49N 35°47' W 005°48'0 0.0
2018-Jan-19 17:26N 35°47' W 005°48'0 0.2
2018-Jan-19 16:59N 35°47' W 005°48'1122.9
2018-Jan-19 16:30N 35°57' W 005°43'611.7
2018-Jan-19 15:59N 36°01' W 005°36'2 1.9
2018-Jan-19 14:52N 35°59' W 005°37'1414.2
2018-Jan-19 13:52N 35°47' W 005°48'0 0.1
2018-Jan-19 13:05N 35°47' W 005°48'0 4.8
2018-Jan-19 13:00N 35°47' W 005°48'1224.3
2018-Jan-19 12:30N 35°58' W 005°40'4 6.7
2018-Jan-19 11:54N 36°01' W 005°36'0 0.0
2018-Jan-19 11:22N 36°01' W 005°36'719.7
2018-Jan-19 11:00N 35°55' W 005°41'9 5.5
2018-Jan-19 09:18N 35°47' W 005°48'411.5
2018-Jan-19 08:59N 35°51' W 005°47'1021.9
2018-Jan-19 08:30N 35°59' W 005°38'2 3.3
2018-Jan-19 07:46N 36°01' W 005°36'0 0.0
2018-Jan-19 07:24N 36°01' W 005°36'0 0.0
2018-Jan-19 06:53N 36°01' W 005°36'0 0.0
2018-Jan-19 06:26N 36°01' W 005°36'0 0.0
2018-Jan-19 03:35N 36°01' W 005°36'0 0.0
2018-Jan-19 03:29N 36°01' W 005°36'0 0.0
2018-Jan-19 02:59N 36°01' W 005°36'0 0.0
2018-Jan-19 02:26N 36°01' W 005°36'0 0.0
2018-Jan-19 01:59N 36°01' W 005°36'0 0.0
2018-Jan-19 01:29N 36°01' W 005°36'0 0.1
2018-Jan-18 22:52N 36°00' W 005°36'821.0
2018-Jan-18 22:30N 35°55' W 005°43'6 3.4
2018-Jan-18 20:53N 35°51' W 005°47'1220.5
2018-Jan-18 20:19N 35°59' W 005°37'2 0.6
2018-Jan-18 17:35N 36°01' W 005°36'0 0.0
2018-Jan-18 17:26N 36°01' W 005°36'0 0.0
2018-Jan-18 16:58N 36°01' W 005°36'0 0.0
2018-Jan-18 16:30N 36°01' W 005°36'0 0.0
2018-Jan-18 15:57N 36°01' W 005°36'0 0.0
2018-Jan-18 15:27N 36°01' W 005°36'0 0.0
2018-Jan-18 14:57N 36°01' W 005°36'0 0.0
2018-Jan-18 14:29N 36°01' W 005°36'0 0.0
2018-Jan-18 13:15N 36°01' W 005°36'0 0.0
2018-Jan-18 13:00N 36°01' W 005°36'0 0.0
2018-Jan-18 12:26N 36°01' W 005°36'0 0.0
2018-Jan-18 11:56N 36°01' W 005°36'0 0.0
2018-Jan-18 11:29N 36°01' W 005°36'0 0.0
2018-Jan-18 10:08N 36°01' W 005°36'0 0.0
2018-Jan-18 09:47N 36°01' W 005°36'0 0.0
2018-Jan-18 09:30N 36°01' W 005°36'0 0.0
2018-Jan-18 09:00N 36°01' W 005°36'0 0.0
2018-Jan-18 08:26N 36°01' W 005°36'0 0.0
2018-Jan-18 08:00N 36°01' W 005°36'0 0.0
2018-Jan-18 07:29N 36°01' W 005°36'0 0.0
2018-Jan-18 07:00N 36°01' W 005°36'0 0.0
2018-Jan-18 06:29N 36°01' W 005°36'0 0.0
2018-Jan-18 06:00N 36°01' W 005°36'0 0.0
2018-Jan-18 05:30N 36°01' W 005°36'0 0.0
2018-Jan-18 04:51N 36°01' W 005°36'0 0.0
2018-Jan-18 04:19N 36°01' W 005°36'0 0.0
2018-Jan-18 03:59N 36°01' W 005°36'0 0.0
2018-Jan-18 03:28N 36°01' W 005°36'0 0.0
2018-Jan-18 02:59N 36°01' W 005°36'0 0.0
2018-Jan-18 02:26N 36°01' W 005°36'0 0.0
2018-Jan-18 01:59N 36°01' W 005°36'0 0.0
2018-Jan-18 01:29N 36°01' W 005°36'0 0.0
2018-Jan-18 00:59N 36°01' W 005°36'0 0.0
2018-Jan-17 23:58N 36°01' W 005°36'0 0.0
2018-Jan-17 23:55N 36°01' W 005°36'  
Track history (hours):
 
Tides and Currents Weather Stations Pressure Air Temp Water Temp Dewpoint Dewpoint Depression Visibility Wind Speed Wind Dir Waves Ship Positions

Tarifa Jet

Last reported at 2018-Jan-22 22:45 UTC. Time now 2018-Jan-23 06:26 UTC.
Position N 36°01' W 005°36'.

Length 86 m; draft 3.6 m.

Type: High speed craft. MMSI: 209375000.

Date/timePositionNaut miles runAvg speedWind from/ knotsBaromVisibWave heightAir tempDewpointWater temp
2018-Jan-22 22:45N 36°01' W 005°36'10 5.2
2018-Jan-22 20:44N 35°53' W 005°46'724.4
2018-Jan-22 20:25N 35°58' W 005°39'3 7.5
2018-Jan-22 20:01N 36°01' W 005°36'0 0.1
2018-Jan-22 19:30N 36°01' W 005°36'2 0.7
2018-Jan-22 16:23N 35°59' W 005°38'2 1.8
2018-Jan-22 15:12N 36°01' W 005°36'3 1.2
2018-Jan-22 12:26N 35°59' W 005°40'3 3.5
2018-Jan-22 11:28N 36°01' W 005°36'1 0.2
2018-Jan-22 08:13N 36°00' W 005°36'1 0.1
2018-Jan-21 22:46N 36°01' W 005°36'11 5.1
2018-Jan-21 20:39N 35°53' W 005°46'724.3
2018-Jan-21 20:21N 35°58' W 005°40'410.7
2018-Jan-21 20:00N 36°01' W 005°36'0 0.0
2018-Jan-21 19:30N 36°01' W 005°36'3 1.0
2018-Jan-21 16:36N 35°59' W 005°39'218.2
2018-Jan-21 16:30N 35°59' W 005°37'1 1.8
2018-Jan-21 15:48N 36°01' W 005°36'0 0.0
2018-Jan-21 15:31N 36°01' W 005°36'0 0.0
2018-Jan-20 22:41N 36°01' W 005°36'212.1
2018-Jan-20 22:31N 35°59' W 005°38'1 0.4
2018-Jan-20 19:14N 35°60' W 005°36'12 1.8
2018-Jan-20 12:47N 35°51' W 005°47'925.7
2018-Jan-20 12:26N 35°58' W 005°40'3 2.5
2018-Jan-20 11:24N 35°59' W 005°37'1 0.1
2018-Jan-19 22:49N 36°01' W 005°36'822.3
2018-Jan-19 22:28N 35°55' W 005°42'9 6.0
2018-Jan-19 21:02N 35°47' W 005°48'1 3.8
2018-Jan-19 20:52N 35°48' W 005°47'1025.9
2018-Jan-19 20:29N 35°57' W 005°44'714.3
2018-Jan-19 20:00N 36°01' W 005°36'0 0.0
2018-Jan-19 19:15N 36°01' W 005°36'2 9.5
2018-Jan-19 19:01N 35°59' W 005°38'1121.7
2018-Jan-19 18:29N 35°50' W 005°46'3 3.8
2018-Jan-19 17:49N 35°47' W 005°48'0 0.0
2018-Jan-19 17:26N 35°47' W 005°48'0 0.2
2018-Jan-19 16:59N 35°47' W 005°48'1122.9
2018-Jan-19 16:30N 35°57' W 005°43'611.7
2018-Jan-19 15:59N 36°01' W 005°36'2 1.9
2018-Jan-19 14:52N 35°59' W 005°37'1414.2
2018-Jan-19 13:52N 35°47' W 005°48'0 0.1
2018-Jan-19 13:05N 35°47' W 005°48'0 4.8
2018-Jan-19 13:00N 35°47' W 005°48'1224.3
2018-Jan-19 12:30N 35°58' W 005°40'4 6.7
2018-Jan-19 11:54N 36°01' W 005°36'0 0.0
2018-Jan-19 11:22N 36°01' W 005°36'719.7
2018-Jan-19 11:00N 35°55' W 005°41'9 5.5
2018-Jan-19 09:18N 35°47' W 005°48'411.5
2018-Jan-19 08:59N 35°51' W 005°47'1021.9
2018-Jan-19 08:30N 35°59' W 005°38'2 3.3
2018-Jan-19 07:46N 36°01' W 005°36'0 0.0
2018-Jan-19 07:24N 36°01' W 005°36'0 0.0
2018-Jan-19 06:53N 36°01' W 005°36'0 0.0
2018-Jan-19 06:26N 36°01' W 005°36'0 0.0
2018-Jan-19 03:35N 36°01' W 005°36'0 0.0
2018-Jan-19 03:29N 36°01' W 005°36'0 0.0
2018-Jan-19 02:59N 36°01' W 005°36'0 0.0
2018-Jan-19 02:26N 36°01' W 005°36'0 0.0
2018-Jan-19 01:59N 36°01' W 005°36'0 0.0
2018-Jan-19 01:29N 36°01' W 005°36'0 0.1
2018-Jan-18 22:52N 36°00' W 005°36'821.0
2018-Jan-18 22:30N 35°55' W 005°43'6 3.4
2018-Jan-18 20:53N 35°51' W 005°47'1220.5
2018-Jan-18 20:19N 35°59' W 005°37'2 0.6
2018-Jan-18 17:35N 36°01' W 005°36'0 0.0
2018-Jan-18 17:26N 36°01' W 005°36'0 0.0
2018-Jan-18 16:58N 36°01' W 005°36'0 0.0
2018-Jan-18 16:30N 36°01' W 005°36'0 0.0
2018-Jan-18 15:57N 36°01' W 005°36'0 0.0
2018-Jan-18 15:27N 36°01' W 005°36'0 0.0
2018-Jan-18 14:57N 36°01' W 005°36'0 0.0
2018-Jan-18 14:29N 36°01' W 005°36'0 0.0
2018-Jan-18 13:15N 36°01' W 005°36'0 0.0
2018-Jan-18 13:00N 36°01' W 005°36'0 0.0
2018-Jan-18 12:26N 36°01' W 005°36'0 0.0
2018-Jan-18 11:56N 36°01' W 005°36'0 0.0
2018-Jan-18 11:29N 36°01' W 005°36'0 0.0
2018-Jan-18 10:08N 36°01' W 005°36'0 0.0
2018-Jan-18 09:47N 36°01' W 005°36'0 0.0
2018-Jan-18 09:30N 36°01' W 005°36'0 0.0
2018-Jan-18 09:00N 36°01' W 005°36'0 0.0
2018-Jan-18 08:26N 36°01' W 005°36'0 0.0
2018-Jan-18 08:00N 36°01' W 005°36'0 0.0
2018-Jan-18 07:29N 36°01' W 005°36'0 0.0
2018-Jan-18 07:00N 36°01' W 005°36'0 0.0
2018-Jan-18 06:29N 36°01' W 005°36'0 0.0
2018-Jan-18 06:00N 36°01' W 005°36'0 0.0
2018-Jan-18 05:30N 36°01' W 005°36'0 0.0
2018-Jan-18 04:51N 36°01' W 005°36'0 0.0
2018-Jan-18 04:19N 36°01' W 005°36'0 0.0
2018-Jan-18 03:59N 36°01' W 005°36'0 0.0
2018-Jan-18 03:28N 36°01' W 005°36'0 0.0
2018-Jan-18 02:59N 36°01' W 005°36'0 0.0
2018-Jan-18 02:26N 36°01' W 005°36'0 0.0
2018-Jan-18 01:59N 36°01' W 005°36'0 0.0
2018-Jan-18 01:29N 36°01' W 005°36'0 0.0
2018-Jan-18 00:59N 36°01' W 005°36'0 0.0
2018-Jan-17 23:58N 36°01' W 005°36'0 0.0
2018-Jan-17 23:55N 36°01' W 005°36'  

Dump ship's entire track history